Time;durP1;ratioP1;P1;durP2;ratioP2;P2;SDS_P1;SDS_P2;PMS_P1;PMS_P2;Temp;Humidity;BMP_temperature;BMP_pressure;BME280_temperature;BME280_humidity;BME280_pressure;Samples;Min_cycle;Max_cycle;Signal;HPM_P1;HPM_P2
2023/07/29 00:01:42;;;;;;;3.90;1.85;;;17.40;99.90;;;;;;4930072;29;20111;-75
2023/07/29 00:04:09;;;;;;;4.18;1.75;;;17.40;99.90;;;;;;4945175;29;20087;-75
2023/07/29 00:06:35;;;;;;;4.30;1.73;;;17.50;99.90;;;;;;4945821;29;20229;-74
2023/07/29 00:09:01;;;;;;;5.72;1.70;;;17.50;99.90;;;;;;4946459;29;20027;-75
2023/07/29 00:11:27;;;;;;;3.33;1.58;;;17.50;99.90;;;;;;4946133;29;20102;-75
2023/07/29 00:13:53;;;;;;;3.67;1.73;;;17.50;99.90;;;;;;4946451;29;20238;-75
2023/07/29 00:16:21;;;;;;;4.30;2.05;;;17.50;99.90;;;;;;4945731;29;20365;-75
2023/07/29 00:18:48;;;;;;;3.65;1.63;;;17.50;99.90;;;;;;4946529;29;20047;-74
2023/07/29 00:21:14;;;;;;;3.05;1.65;;;17.50;99.90;;;;;;4946125;29;20306;-77
2023/07/29 00:23:42;;;;;;;3.22;1.45;;;17.60;99.90;;;;;;4946334;29;20038;-75
2023/07/29 00:26:08;;;;;;;;;;;17.60;99.90;;;;;;4946399;29;20053;-74
2023/07/29 00:28:33;;;;;;;5.97;4.00;;;17.70;99.90;;;;;;4929688;29;19965;-76
2023/07/29 06:11:32;;;;;;;4.95;2.05;;;19.70;99.90;;;;;;5826281;23;19914;-75
2023/07/29 06:13:58;;;;;;;5.80;2.10;;;19.80;99.90;;;;;;4975249;28;20102;-73
2023/07/29 06:16:24;;;;;;;4.78;1.58;;;19.90;99.90;;;;;;4969742;28;20252;-74
2023/07/29 06:18:52;;;;;;;5.20;1.80;;;20.00;99.90;;;;;;4974301;28;20018;-74
2023/07/29 06:21:19;;;;;;;3.90;1.58;;;20.00;99.90;;;;;;5000993;28;20030;-74
2023/07/29 06:23:46;;;;;;;2.38;1.40;;;20.10;99.90;;;;;;4990225;28;20308;-74
2023/07/29 06:26:11;;;;;;;2.17;1.15;;;20.20;99.90;;;;;;4986445;28;20107;-72
2023/07/29 06:28:37;;;;;;;3.55;1.30;;;20.10;99.90;;;;;;4979483;28;20284;-74
2023/07/29 06:31:03;;;;;;;3.88;1.48;;;20.10;99.90;;;;;;4979837;28;20042;-74
2023/07/29 06:33:29;;;;;;;4.00;1.50;;;20.00;99.90;;;;;;4967692;28;20031;-74
2023/07/29 06:35:54;;;;;;;5.07;1.65;;;19.90;99.90;;;;;;4967434;28;20031;-74
2023/07/29 06:38:21;;;;;;;5.28;1.98;;;19.80;99.90;;;;;;4967569;28;20035;-73
2023/07/29 06:40:50;;;;;;;3.10;1.50;;;19.80;99.90;;;;;;4949434;29;20035;-73
2023/07/29 06:43:16;;;;;;;6.15;1.67;;;19.60;99.90;;;;;;4966661;29;20272;-73
2023/07/29 06:45:43;;;;;;;5.25;1.52;;;19.50;99.90;;;;;;4979349;28;20350;-74
2023/07/29 06:48:08;;;;;;;3.75;1.90;;;19.50;99.90;;;;;;4986444;28;20324;-74
2023/07/29 06:50:34;;;;;;;5.00;1.80;;;19.60;99.90;;;;;;4985996;28;20107;-74
2023/07/29 06:53:00;;;;;;;5.28;1.83;;;19.60;99.90;;;;;;4976295;28;20038;-75
2023/07/29 06:55:25;;;;;;;3.88;1.88;;;19.70;99.90;;;;;;4967609;28;20041;-74
2023/07/29 06:57:51;;;;;;;4.40;1.63;;;19.70;99.90;;;;;;4966637;28;20023;-76
2023/07/29 07:00:17;;;;;;;4.22;1.80;;;19.60;99.90;;;;;;4950212;29;20419;-73
2023/07/29 07:02:43;;;;;;;5.35;1.92;;;19.50;99.90;;;;;;4949750;29;20063;-73
2023/07/29 07:05:09;;;;;;;5.40;1.98;;;19.40;99.90;;;;;;4967561;29;20026;-74
2023/07/29 07:07:34;;;;;;;5.47;1.90;;;19.40;99.90;;;;;;4974352;28;20280;-75
2023/07/29 07:10:00;;;;;;;2.90;1.63;;;19.30;99.90;;;;;;4988088;28;20316;-75
2023/07/29 07:12:26;;;;;;;5.32;1.70;;;19.30;99.90;;;;;;4986185;28;20041;-75
2023/07/29 07:14:52;;;;;;;4.53;2.08;;;19.30;99.90;;;;;;4965567;28;20035;-75
2023/07/29 07:17:18;;;;;;;3.97;1.83;;;19.30;99.90;;;;;;4966718;29;20351;-73
2023/07/29 07:19:43;;;;;;;3.60;1.80;;;19.30;99.90;;;;;;4971277;28;20066;-75
2023/07/29 07:22:09;;;;;;;3.15;1.30;;;19.40;99.90;;;;;;4967042;28;20046;-74
2023/07/29 07:24:35;;;;;;;3.03;1.33;;;19.50;99.90;;;;;;4966645;28;20094;-74
2023/07/29 07:27:02;;;;;;;4.07;1.48;;;19.60;99.90;;;;;;4976287;28;20049;-74
2023/07/29 07:29:28;;;;;;;2.35;1.17;;;19.70;99.90;;;;;;4986244;28;20029;-75
2023/07/29 07:31:56;;;;;;;2.60;1.13;;;19.70;99.90;;;;;;4985668;28;20023;-74
2023/07/29 07:34:22;;;;;;;2.55;0.90;;;19.80;99.90;;;;;;4985868;28;20099;-74
2023/07/29 07:36:47;;;;;;;2.00;0.80;;;20.00;99.90;;;;;;4985232;28;20301;-74
2023/07/29 07:39:13;;;;;;;3.80;1.00;;;20.20;99.90;;;;;;4985924;28;20030;-75
2023/07/29 07:41:42;;;;;;;1.55;0.70;;;20.30;99.90;;;;;;4985185;28;20196;-74
2023/07/29 07:44:08;;;;;;;3.83;0.90;;;20.50;99.90;;;;;;4977803;28;20061;-74
2023/07/29 07:46:34;;;;;;;2.28;1.10;;;20.70;99.90;;;;;;4965950;28;20031;-75
2023/07/29 07:49:00;;;;;;;2.88;1.02;;;20.80;99.90;;;;;;4966163;29;20019;-75
2023/07/29 07:51:25;;;;;;;3.75;1.27;;;20.70;99.90;;;;;;4966410;28;20078;-74
2023/07/29 07:53:51;;;;;;;3.28;1.08;;;20.80;99.90;;;;;;4977504;28;20026;-74
2023/07/29 07:56:17;;;;;;;2.90;1.15;;;20.70;99.90;;;;;;4985443;28;20030;-72
2023/07/29 07:58:42;;;;;;;2.17;1.08;;;20.80;99.90;;;;;;4985253;28;20027;-75
2023/07/29 08:01:09;;;;;;;3.13;1.15;;;21.00;99.90;;;;;;4985519;28;20035;-75
2023/07/29 08:03:38;;;;;;;2.13;1.10;;;21.10;99.90;;;;;;4985056;28;20311;-79
2023/07/29 08:06:04;;;;;;;2.92;1.02;;;21.30;99.90;;;;;;4951951;28;20219;-79
2023/07/29 08:08:30;;;;;;;2.90;1.00;;;21.50;99.90;;;;;;4970435;28;20023;-75
2023/07/29 08:10:57;;;;;;;1.85;0.98;;;21.60;99.90;;;;;;4965490;28;20054;-75
2023/07/29 08:13:24;;;;;;;1.63;0.70;;;21.60;99.90;;;;;;4966543;28;20387;-75
2023/07/29 08:15:53;;;;;;;3.33;1.15;;;21.80;99.90;;;;;;4984732;28;20027;-78
2023/07/29 08:18:19;;;;;;;1.70;0.80;;;21.90;99.90;;;;;;4985141;28;20054;-78
2023/07/29 08:20:57;;;;;;;1.95;0.60;;;22.10;99.90;;;;;;4984630;28;20070;-76
2023/07/29 08:23:26;;;;;;;1.83;0.60;;;22.40;99.90;;;;;;4985501;28;20054;-77
2023/07/29 08:26:00;;;;;;;;;;;22.50;99.90;;;;;;4983296;28;20046;-76
2023/07/29 08:28:37;;;;;;;1.40;0.50;;;22.70;99.90;;;;;;4948426;29;19906;-76
2023/07/29 08:31:03;;;;;;;2.80;1.00;;;22.90;99.90;;;;;;4965717;29;20034;-75
2023/07/29 08:33:33;;;;;;;3.42;0.60;;;23.00;99.90;;;;;;4964350;29;20070;-69
2023/07/29 08:35:59;;;;;;;1.48;0.70;;;23.00;99.90;;;;;;4965356;28;20039;-78
2023/07/29 08:38:25;;;;;;;3.13;0.80;;;23.10;99.90;;;;;;4948632;29;20086;-73
2023/07/29 08:41:03;;;;;;;1.38;0.55;;;23.30;99.90;;;;;;4947859;29;20217;-73
2023/07/29 08:43:31;;;;;;;2.05;0.60;;;23.40;99.90;;;;;;4948421;29;20039;-73
2023/07/29 08:45:58;;;;;;;2.05;0.80;;;23.30;99.90;;;;;;4965106;28;20285;-71
2023/07/29 08:48:39;;;;;;;1.35;0.60;;;23.10;99.90;;;;;;4978007;28;20103;-73
2023/07/29 08:51:07;;;;;;;1.70;0.82;;;23.30;99.90;;;;;;4985041;28;20034;-72
2023/07/29 08:53:33;;;;;;;2.53;0.60;;;23.20;99.90;;;;;;4984915;28;20276;-71
2023/07/29 08:56:02;;;;;;;1.92;0.68;;;23.40;99.90;;;;;;4984060;28;20534;-72
2023/07/29 08:58:29;;;;;;;2.38;0.80;;;23.70;99.90;;;;;;4984907;28;20027;-72
2023/07/29 09:00:54;;;;;;;1.65;0.82;;;23.80;99.90;;;;;;4967030;28;20019;-72
2023/07/29 09:03:21;;;;;;;3.72;0.50;;;24.00;99.90;;;;;;4984765;28;20026;-73
2023/07/29 09:05:47;;;;;;;1.23;0.55;;;24.00;99.90;;;;;;4984356;28;20030;-71
2023/07/29 09:08:14;;;;;;;2.67;0.90;;;24.20;99.90;;;;;;4972001;28;20031;-71
2023/07/29 09:10:39;;;;;;;2.03;0.70;;;24.20;99.90;;;;;;4964615;28;20031;-74
2023/07/29 09:13:07;;;;;;;1.20;0.52;;;24.70;99.90;;;;;;4965020;28;20090;-70
2023/07/29 09:15:35;;;;;;;1.25;0.65;;;25.00;99.90;;;;;;4983384;28;20371;-72
2023/07/29 09:18:19;;;;;;;1.85;0.85;;;25.20;99.90;;;;;;4983914;28;20026;-71
2023/07/29 09:20:48;;;;;;;1.83;0.70;;;25.50;99.90;;;;;;4983848;28;20316;-74
2023/07/29 09:23:14;;;;;;;1.73;0.73;;;25.50;99.90;;;;;;4967039;28;20253;-77
2023/07/29 09:25:41;;;;;;;1.77;0.65;;;25.40;99.90;;;;;;4983189;28;20038;-75
2023/07/29 09:28:16;;;;;;;2.30;0.60;;;25.30;99.90;;;;;;4948729;28;20270;-75
2023/07/29 09:30:44;;;;;;;2.70;0.90;;;25.20;99.90;;;;;;4963328;29;20086;-71
2023/07/29 09:33:10;;;;;;;;;;;25.30;99.90;;;;;;4965468;28;20027;-74
2023/07/29 09:35:39;;;;;;;3.85;1.00;;;25.30;99.90;;;;;;4965008;28;19953;-72
2023/07/29 09:38:05;;;;;;;2.00;0.60;;;25.50;99.90;;;;;;4963533;29;20054;-73
2023/07/29 09:40:39;;;;;;;2.22;1.00;;;25.80;99.90;;;;;;4964851;29;20312;-71
2023/07/29 09:43:05;;;;;;;2.38;0.90;;;26.20;99.90;;;;;;4964348;28;20035;-73
2023/07/29 09:45:34;;;;;;;1.50;0.60;;;26.40;99.90;;;;;;4964972;28;20110;-73
2023/07/29 09:48:01;;;;;;;2.78;1.00;;;26.70;99.40;;;;;;4973638;28;20257;-74
2023/07/29 09:50:27;;;;;;;2.08;0.73;;;26.60;98.00;;;;;;4983865;28;20106;-76
2023/07/29 09:53:00;;;;;;;1.70;0.63;;;26.40;98.70;;;;;;4983401;28;20038;-74
2023/07/29 09:55:29;;;;;;;1.80;0.80;;;26.00;98.70;;;;;;4983902;28;20043;-75
2023/07/29 09:58:03;;;;;;;2.15;0.82;;;26.20;98.50;;;;;;4973038;28;20316;-76
2023/07/29 10:00:30;;;;;;;2.45;1.02;;;26.20;98.00;;;;;;4964697;29;20347;-75
2023/07/29 10:02:58;;;;;;;1.63;0.63;;;26.30;98.30;;;;;;4964085;28;20309;-72
2023/07/29 10:05:26;;;;;;;2.08;0.80;;;26.40;98.70;;;;;;4964340;28;20031;-74
2023/07/29 10:07:58;;;;;;;1.67;0.60;;;26.40;96.40;;;;;;4973761;28;20240;-73
2023/07/29 10:10:25;;;;;;;2.00;0.80;;;26.30;96.60;;;;;;4983606;28;20035;-75
2023/07/29 10:12:56;;;;;;;1.45;0.70;;;26.20;97.10;;;;;;4949992;28;20050;-75
2023/07/29 10:15:22;;;;;;;2.28;0.85;;;26.50;96.50;;;;;;4966819;28;20240;-77
2023/07/29 10:17:51;;;;;;;3.30;1.00;;;26.80;96.70;;;;;;4964156;28;20376;-75
2023/07/29 10:20:17;;;;;;;2.45;1.02;;;27.20;95.90;;;;;;4977827;28;20042;-75
2023/07/29 10:22:46;;;;;;;1.60;0.80;;;27.30;94.60;;;;;;4983758;28;20038;-77
2023/07/29 10:25:28;;;;;;;1.90;0.80;;;27.20;93.80;;;;;;4984117;28;20038;-77
2023/07/29 10:28:04;;;;;;;1.70;0.80;;;27.20;94.10;;;;;;4966443;28;20035;-76
2023/07/29 10:30:31;;;;;;;2.35;0.90;;;26.90;94.30;;;;;;4964548;29;20039;-72
2023/07/29 10:33:01;;;;;;;1.95;0.85;;;26.70;95.90;;;;;;4964021;29;20041;-74
2023/07/29 10:35:27;;;;;;;1.65;0.93;;;26.10;97.10;;;;;;4946892;29;20102;-75
2023/07/29 10:37:53;;;;;;;2.00;1.10;;;25.80;98.50;;;;;;4963754;28;20082;-75
2023/07/29 10:40:22;;;;;;;2.58;0.70;;;25.50;99.90;;;;;;4963946;28;20320;-74
2023/07/29 10:43:00;;;;;;;2.20;0.80;;;25.10;99.90;;;;;;4946241;29;20070;-74
2023/07/29 10:45:26;;;;;;;2.97;0.73;;;24.70;99.90;;;;;;4947026;29;20035;-72
2023/07/29 10:47:52;;;;;;;1.30;0.60;;;24.60;99.90;;;;;;4972339;28;20073;-74
2023/07/29 10:50:22;;;;;;;1.30;0.43;;;24.70;99.90;;;;;;4987228;28;20284;-74
2023/07/29 10:52:52;;;;;;;1.75;0.80;;;24.70;99.90;;;;;;4986544;28;20253;-75
2023/07/29 10:55:33;;;;;;;1.40;0.70;;;24.70;99.90;;;;;;4969630;28;20220;-76
2023/07/29 10:58:17;;;;;;;1.08;0.50;;;24.90;99.90;;;;;;4986218;28;20034;-76
2023/07/29 11:00:46;;;;;;;1.48;0.60;;;25.30;99.10;;;;;;4969679;28;20045;-76
2023/07/29 11:03:16;;;;;;;1.73;0.70;;;25.60;98.20;;;;;;4991675;28;20312;-75
2023/07/29 11:05:47;;;;;;;1.92;0.47;;;26.30;97.60;;;;;;5006026;28;20084;-76
2023/07/29 11:08:44;;;;;;;1.50;0.63;;;26.60;96.10;;;;;;4980253;28;20038;-76
2023/07/29 11:11:13;;;;;;;1.67;0.80;;;27.20;95.00;;;;;;4934930;29;20058;-75
2023/07/29 11:13:45;;;;;;;2.35;0.70;;;27.20;95.40;;;;;;4970090;28;20343;-75
2023/07/29 11:16:16;;;;;;;1.60;0.90;;;27.70;94.70;;;;;;4986505;28;20030;-74
2023/07/29 11:18:45;;;;;;;1.25;0.50;;;28.10;93.70;;;;;;4986395;28;20050;-74
2023/07/29 11:21:10;;;;;;;;;;;28.60;92.90;;;;;;4969149;28;20265;-75
2023/07/29 11:23:37;;;;;;;1.85;0.70;;;28.80;91.30;;;;;;4969114;28;19906;-72
2023/07/29 11:26:04;;;;;;;1.83;0.80;;;28.60;91.00;;;;;;4983829;28;20031;-73
2023/07/29 11:28:30;;;;;;;2.33;0.90;;;28.30;91.40;;;;;;4967175;29;20039;-74
2023/07/29 11:30:56;;;;;;;1.83;0.77;;;28.20;91.20;;;;;;4966446;29;20359;-74
2023/07/29 11:33:25;;;;;;;1.85;0.80;;;28.10;92.10;;;;;;4966967;28;20027;-77
2023/07/29 11:35:51;;;;;;;1.52;0.70;;;28.20;92.10;;;;;;4965987;28;20049;-74
2023/07/29 11:38:18;;;;;;;2.67;0.60;;;28.10;92.40;;;;;;4966639;28;20031;-75
2023/07/29 11:40:58;;;;;;;1.88;0.70;;;28.20;92.10;;;;;;4966772;28;20069;-74
2023/07/29 11:43:24;;;;;;;1.75;0.75;;;28.50;91.20;;;;;;4966679;29;20059;-72
2023/07/29 11:45:52;;;;;;;1.65;0.63;;;28.60;91.00;;;;;;4965869;28;20340;-74
2023/07/29 11:48:17;;;;;;;2.90;0.80;;;28.60;90.50;;;;;;4978571;28;20069;-73
2023/07/29 11:50:45;;;;;;;1.65;0.90;;;28.50;90.50;;;;;;4985904;28;20038;-73
2023/07/29 11:53:12;;;;;;;1.73;0.65;;;28.60;90.30;;;;;;4985339;28;20211;-73
2023/07/29 11:55:38;;;;;;;1.85;0.75;;;28.60;90.30;;;;;;4985617;28;20045;-74
2023/07/29 11:58:04;;;;;;;3.10;0.77;;;28.90;89.60;;;;;;4968113;28;20035;-75
2023/07/29 12:00:31;;;;;;;1.50;0.60;;;29.60;88.30;;;;;;4984807;28;20042;-72
2023/07/29 12:02:57;;;;;;;2.08;0.70;;;30.10;86.00;;;;;;4985238;28;20035;-74
2023/07/29 12:05:26;;;;;;;1.85;0.70;;;30.60;85.60;;;;;;4985900;28;20030;-76
2023/07/29 12:07:52;;;;;;;1.70;0.73;;;32.30;81.10;;;;;;4975048;28;20103;-74
2023/07/29 12:10:18;;;;;;;1.35;0.63;;;32.70;79.40;;;;;;4965991;28;20306;-74
2023/07/29 12:12:49;;;;;;;1.85;0.93;;;31.70;80.10;;;;;;4965514;28;20053;-75
2023/07/29 12:15:25;;;;;;;1.65;0.95;;;31.70;82.50;;;;;;4981812;28;20037;-75
2023/07/29 12:17:55;;;;;;;1.30;0.60;;;31.70;79.90;;;;;;4984966;28;20034;-73
2023/07/29 12:20:21;;;;;;;2.17;0.70;;;32.50;79.20;;;;;;4980681;28;20023;-75
2023/07/29 12:22:52;;;;;;;1.35;0.60;;;33.00;76.80;;;;;;4981079;28;20027;-75
2023/07/29 12:25:18;;;;;;;1.92;0.93;;;33.10;75.70;;;;;;4975512;28;20039;-74
2023/07/29 12:27:44;;;;;;;1.75;0.52;;;32.40;77.20;;;;;;4981631;28;20057;-74
2023/07/29 12:30:10;;;;;;;1.63;0.73;;;31.90;77.50;;;;;;4969731;28;20368;-71
2023/07/29 12:32:46;;;;;;;1.80;0.82;;;32.00;79.30;;;;;;4965653;28;20038;-73
2023/07/29 12:35:13;;;;;;;2.75;0.98;;;32.90;76.40;;;;;;4965004;28;20038;-75
2023/07/29 12:37:42;;;;;;;2.08;0.70;;;33.40;73.90;;;;;;4965724;28;20031;-75
2023/07/29 12:40:28;;;;;;;2.25;0.90;;;33.40;70.90;;;;;;4965152;28;20333;-74
2023/07/29 12:42:55;;;;;;;1.83;0.82;;;33.20;70.30;;;;;;4964660;29;20051;-73
2023/07/29 12:45:26;;;;;;;1.52;0.88;;;33.60;69.40;;;;;;4965317;28;20216;-75
2023/07/29 12:47:53;;;;;;;2.35;0.80;;;34.60;68.40;;;;;;4972901;28;20027;-75
2023/07/29 12:50:19;;;;;;;1.67;0.98;;;35.50;66.10;;;;;;4985240;28;20039;-74
2023/07/29 12:52:45;;;;;;;1.73;0.73;;;36.80;62.60;;;;;;4984588;28;20030;-76
2023/07/29 12:55:13;;;;;;;2.20;0.77;;;37.80;58.80;;;;;;4973983;28;20019;-74
2023/07/29 12:57:41;;;;;;;2.05;0.85;;;38.20;57.10;;;;;;4948309;29;20026;-72
2023/07/29 13:00:08;;;;;;;1.98;0.90;;;36.90;57.40;;;;;;4965130;29;20305;-72
2023/07/29 13:02:34;;;;;;;1.92;0.90;;;36.00;58.70;;;;;;4965510;28;20026;-74
2023/07/29 13:05:00;;;;;;;1.75;0.85;;;34.80;60.00;;;;;;4964392;28;20027;-74
2023/07/29 13:07:25;;;;;;;1.40;0.73;;;33.10;61.50;;;;;;4971019;28;20034;-74
2023/07/29 13:09:51;;;;;;;2.72;0.80;;;32.80;63.80;;;;;;4984401;28;20342;-74
2023/07/29 13:12:17;;;;;;;1.40;0.80;;;33.30;63.00;;;;;;4983217;28;20038;-75
2023/07/29 13:14:43;;;;;;;1.80;0.80;;;33.20;63.40;;;;;;4980135;28;20027;-74
2023/07/29 13:17:08;;;;;;;2.22;1.15;;;33.40;63.70;;;;;;4964495;28;20053;-74
2023/07/29 13:19:34;;;;;;;1.70;0.90;;;33.50;62.80;;;;;;4972322;28;20039;-73
2023/07/29 13:22:02;;;;;;;2.55;0.80;;;33.80;62.80;;;;;;4983759;28;20027;-75
2023/07/29 13:24:27;;;;;;;1.70;0.90;;;33.70;63.00;;;;;;4957291;29;20031;-75
2023/07/29 13:26:53;;;;;;;1.50;0.90;;;34.10;62.50;;;;;;4956420;28;20155;-76
2023/07/29 13:29:19;;;;;;;1.40;0.68;;;34.60;61.90;;;;;;4984035;28;20259;-75
2023/07/29 13:31:45;;;;;;;2.90;1.10;;;33.70;63.80;;;;;;4984424;28;20038;-75
2023/07/29 13:34:11;;;;;;;2.03;1.10;;;33.90;63.20;;;;;;4983222;28;20023;-73
2023/07/29 13:36:36;;;;;;;3.35;1.13;;;33.90;61.50;;;;;;4984095;28;20300;-73
2023/07/29 13:39:02;;;;;;;1.92;0.98;;;32.70;63.50;;;;;;4983724;28;20035;-75
2023/07/29 13:41:28;;;;;;;1.55;0.82;;;31.80;64.80;;;;;;4984143;28;20057;-76
2023/07/29 13:43:56;;;;;;;1.80;1.00;;;31.20;66.20;;;;;;4984130;28;20042;-72
2023/07/29 13:46:22;;;;;;;2.17;1.00;;;30.30;68.20;;;;;;4984070;28;20029;-74
2023/07/29 13:48:48;;;;;;;1.80;0.95;;;30.50;67.80;;;;;;4968212;28;20035;-73
2023/07/29 13:51:13;;;;;;;2.60;0.90;;;30.20;67.90;;;;;;4947261;29;20027;-75
2023/07/29 13:53:39;;;;;;;1.40;0.73;;;30.40;68.90;;;;;;4947627;29;20027;-71
2023/07/29 13:56:10;;;;;;;2.63;1.00;;;30.30;69.10;;;;;;4964430;28;20031;-77
2023/07/29 13:58:36;;;;;;;1.98;0.93;;;30.40;69.00;;;;;;4964769;28;20042;-75
2023/07/29 14:01:02;;;;;;;2.00;1.00;;;30.10;68.00;;;;;;4963605;28;20035;-72
2023/07/29 14:03:33;;;;;;;3.10;1.20;;;29.70;68.80;;;;;;4964480;28;20035;-72
2023/07/29 14:05:59;;;;;;;2.83;0.90;;;29.30;69.90;;;;;;4963776;28;20019;-73
2023/07/29 14:08:25;;;;;;;3.50;1.00;;;29.70;70.80;;;;;;4978439;28;20054;-73
2023/07/29 14:10:50;;;;;;;1.65;0.80;;;30.00;70.30;;;;;;4983509;28;20066;-73
2023/07/29 14:13:16;;;;;;;1.80;1.08;;;30.10;68.90;;;;;;4984253;28;20446;-74
2023/07/29 14:15:45;;;;;;;2.25;1.08;;;30.80;69.20;;;;;;4983744;28;20038;-71
2023/07/29 14:18:12;;;;;;;1.83;0.90;;;31.30;68.20;;;;;;4981746;28;20355;-72
2023/07/29 14:20:37;;;;;;;1.60;0.80;;;33.10;64.80;;;;;;4982181;28;20023;-73
2023/07/29 14:23:03;;;;;;;1.75;1.00;;;34.00;63.50;;;;;;4983840;28;20035;-71
2023/07/29 14:25:29;;;;;;;2.60;0.90;;;34.50;63.40;;;;;;4987652;28;20027;-72
2023/07/29 14:27:55;;;;;;;2.17;0.90;;;35.50;60.60;;;;;;4970487;28;20309;-73
2023/07/29 14:30:21;;;;;;;2.28;0.80;;;36.30;59.20;;;;;;4966384;28;20074;-73
2023/07/29 14:32:48;;;;;;;2.08;0.73;;;35.70;59.80;;;;;;4967997;28;20023;-73
2023/07/29 14:35:13;;;;;;;2.30;1.10;;;34.70;61.30;;;;;;4967404;28;20027;-71
2023/07/29 14:37:39;;;;;;;1.67;0.90;;;33.80;62.90;;;;;;4967680;29;20094;-70
2023/07/29 14:40:06;;;;;;;2.47;1.20;;;32.90;63.40;;;;;;4966849;28;20030;-71
2023/07/29 14:42:31;;;;;;;2.60;1.10;;;32.00;66.60;;;;;;4967470;28;20035;-70
2023/07/29 14:44:57;;;;;;;2.25;1.10;;;31.40;66.90;;;;;;4967556;28;20094;-71
2023/07/29 14:47:23;;;;;;;1.80;0.90;;;30.70;67.90;;;;;;4971284;28;20271;-73
2023/07/29 14:49:48;;;;;;;2.20;1.08;;;30.10;68.80;;;;;;4986921;28;20062;-71
2023/07/29 14:52:14;;;;;;;1.95;0.95;;;29.50;70.00;;;;;;4986140;28;20046;-72
2023/07/29 14:54:43;;;;;;;3.13;1.08;;;29.20;71.40;;;;;;4986799;28;20347;-70
2023/07/29 14:57:10;;;;;;;2.80;1.08;;;29.10;71.70;;;;;;4985955;28;20026;-72
2023/07/29 14:59:35;;;;;;;2.50;1.10;;;29.20;71.60;;;;;;4986437;28;20050;-70
2023/07/29 15:02:01;;;;;;;2.53;1.00;;;29.10;72.00;;;;;;4985908;28;20050;-72
2023/07/29 15:04:27;;;;;;;4.28;1.25;;;29.40;71.30;;;;;;4969128;28;20050;-71
2023/07/29 15:06:52;;;;;;;2.45;1.40;;;30.20;70.10;;;;;;4984493;28;20081;-70
2023/07/29 15:09:18;;;;;;;2.58;1.00;;;30.50;69.50;;;;;;4978258;28;20027;-72
2023/07/29 15:11:44;;;;;;;2.60;1.23;;;30.10;69.70;;;;;;4986079;28;20041;-70
2023/07/29 15:14:10;;;;;;;2.33;0.90;;;30.20;69.50;;;;;;4978998;28;20058;-72
2023/07/29 15:16:38;;;;;;;2.70;0.90;;;30.70;69.00;;;;;;4967140;28;20058;-69
2023/07/29 15:19:04;;;;;;;1.92;1.02;;;30.90;68.60;;;;;;4970350;28;20027;-72
2023/07/29 15:21:30;;;;;;;2.53;1.00;;;31.10;69.60;;;;;;4986017;28;20041;-73
2023/07/29 15:23:56;;;;;;;2.10;0.93;;;31.20;68.90;;;;;;4986312;28;20042;-70
2023/07/29 15:26:21;;;;;;;1.88;1.10;;;31.40;69.50;;;;;;4980371;28;20059;-70
2023/07/29 15:28:47;;;;;;;2.00;0.77;;;31.70;67.00;;;;;;4966753;29;20108;-71
2023/07/29 15:31:13;;;;;;;2.40;1.27;;;32.00;67.10;;;;;;4966478;28;20027;-73
2023/07/29 15:33:39;;;;;;;1.30;0.68;;;32.20;66.60;;;;;;4949673;28;20023;-70
2023/07/29 15:36:05;;;;;;;3.03;1.23;;;32.10;68.60;;;;;;4948061;29;20313;-68
2023/07/29 15:38:31;;;;;;;1.70;0.98;;;32.30;66.40;;;;;;4966638;28;20070;-71
2023/07/29 15:40:56;;;;;;;2.95;1.13;;;32.30;65.80;;;;;;4966907;29;20042;-72
2023/07/29 15:43:23;;;;;;;1.70;1.10;;;33.20;64.30;;;;;;4966170;28;20035;-69
2023/07/29 15:45:49;;;;;;;2.35;1.10;;;35.00;63.30;;;;;;4966439;28;20039;-70
2023/07/29 15:48:15;;;;;;;4.00;1.08;;;36.10;60.00;;;;;;4957148;29;20216;-71
2023/07/29 15:50:42;;;;;;;2.50;1.00;;;35.50;60.20;;;;;;4949687;29;20058;-70
2023/07/29 15:53:08;;;;;;;2.20;1.00;;;34.50;61.60;;;;;;4965857;28;20347;-72
2023/07/29 15:55:33;;;;;;;5.68;1.10;;;34.20;62.80;;;;;;4966480;29;20050;-74
2023/07/29 15:57:59;;;;;;;2.30;1.17;;;35.30;61.30;;;;;;4949356;29;20246;-70
2023/07/29 16:00:25;;;;;;;1.88;0.93;;;36.50;59.40;;;;;;4965987;28;20043;-69
2023/07/29 16:02:51;;;;;;;1.98;0.90;;;35.30;59.70;;;;;;4966234;29;20030;-71
2023/07/29 16:05:16;;;;;;;2.25;1.00;;;34.30;62.20;;;;;;4965628;29;20086;-70
2023/07/29 16:07:42;;;;;;;2.95;1.15;;;32.80;62.80;;;;;;4983507;28;20029;-71
2023/07/29 16:10:09;;;;;;;2.88;1.30;;;32.50;65.50;;;;;;5004617;28;20056;-69
2023/07/29 16:12:37;;;;;;;2.38;1.23;;;32.70;65.70;;;;;;5004454;28;20050;-71
2023/07/29 16:15:05;;;;;;;3.58;1.27;;;32.40;66.40;;;;;;4990273;28;20049;-70
2023/07/29 16:17:31;;;;;;;4.47;1.20;;;34.10;65.10;;;;;;4985514;28;20027;-71
2023/07/29 16:19:59;;;;;;;1.75;1.10;;;37.00;60.20;;;;;;4984848;28;20042;-72
2023/07/29 16:22:25;;;;;;;1.67;1.02;;;39.80;57.30;;;;;;4984777;28;20089;-71
2023/07/29 16:24:52;;;;;;;2.58;1.40;;;39.60;55.60;;;;;;4985439;28;20050;-72
2023/07/29 16:27:18;;;;;;;2.35;1.30;;;38.30;55.90;;;;;;4955397;28;20019;-69
2023/07/29 16:29:44;;;;;;;2.47;0.93;;;38.20;56.10;;;;;;4965512;28;20063;-70
2023/07/29 16:32:10;;;;;;;2.00;1.20;;;37.10;55.90;;;;;;4965047;29;20039;-72
2023/07/29 16:34:42;;;;;;;1.90;1.05;;;37.60;56.10;;;;;;4965505;28;20213;-75
2023/07/29 16:37:08;;;;;;;1.98;1.00;;;38.10;54.70;;;;;;4964902;28;20039;-72
2023/07/29 16:39:35;;;;;;;1.85;0.90;;;37.80;54.30;;;;;;4948370;29;20046;-71
2023/07/29 16:42:00;;;;;;;2.40;0.80;;;38.20;54.20;;;;;;4965386;28;20054;-74
2023/07/29 16:44:26;;;;;;;2.15;1.15;;;37.50;54.60;;;;;;4964954;28;20423;-74
2023/07/29 16:46:52;;;;;;;1.70;1.00;;;36.10;55.50;;;;;;4976570;28;20050;-71
2023/07/29 16:49:18;;;;;;;1.38;0.77;;;36.50;56.10;;;;;;4984058;28;20039;-73
2023/07/29 16:51:45;;;;;;;3.00;1.13;;;36.10;56.40;;;;;;4984748;28;20035;-72
2023/07/29 16:54:10;;;;;;;1.88;1.00;;;36.10;57.90;;;;;;4984246;28;20115;-70
2023/07/29 16:56:36;;;;;;;3.55;1.38;;;34.90;57.80;;;;;;4984980;28;20031;-72
2023/07/29 16:59:02;;;;;;;2.15;0.90;;;33.60;59.90;;;;;;4984627;28;20027;-71
2023/07/29 17:01:27;;;;;;;1.70;0.90;;;32.40;61.50;;;;;;4983612;28;20340;-72
2023/07/29 17:03:53;;;;;;;2.42;1.00;;;32.20;61.90;;;;;;4984084;28;20027;-72
2023/07/29 17:06:19;;;;;;;2.10;1.10;;;31.60;63.60;;;;;;4983667;28;20023;-73
2023/07/29 17:08:45;;;;;;;2.78;1.10;;;30.80;64.80;;;;;;4967210;28;20038;-71
2023/07/29 17:11:10;;;;;;;5.30;1.38;;;30.40;65.10;;;;;;4964289;29;20218;-73
2023/07/29 17:13:36;;;;;;;3.85;1.13;;;29.80;66.90;;;;;;4967576;28;20228;-71
2023/07/29 17:16:02;;;;;;;2.22;1.10;;;29.20;68.00;;;;;;4984524;28;20085;-74
2023/07/29 17:18:27;;;;;;;3.47;1.40;;;28.80;68.80;;;;;;4983461;28;20228;-74
2023/07/29 17:20:53;;;;;;;2.58;1.40;;;28.30;70.10;;;;;;4983746;28;20043;-72
2023/07/29 17:23:19;;;;;;;1.90;1.13;;;27.80;71.00;;;;;;4983656;28;20034;-73
2023/07/29 17:25:44;;;;;;;2.40;1.15;;;27.70;72.00;;;;;;4984072;28;20338;-72
2023/07/29 17:28:10;;;;;;;2.70;1.40;;;27.50;72.40;;;;;;4964827;28;20090;-73
2023/07/29 17:30:36;;;;;;;2.85;1.40;;;27.50;73.70;;;;;;4964928;28;20335;-72
2023/07/29 17:33:03;;;;;;;2.15;1.00;;;27.30;73.20;;;;;;4964785;28;20042;-72
2023/07/29 17:35:29;;;;;;;2.78;0.65;;;26.70;75.50;;;;;;4963996;28;20521;-73
2023/07/29 17:37:55;;;;;;;1.52;0.63;;;25.70;78.80;;;;;;4964501;28;20031;-74
2023/07/29 17:40:20;;;;;;;2.13;0.60;;;25.10;80.80;;;;;;4964053;28;20384;-74
2023/07/29 17:42:46;;;;;;;2.05;0.60;;;24.70;83.10;;;;;;4964880;28;20031;-73
2023/07/29 17:45:12;;;;;;;3.22;0.65;;;24.50;85.10;;;;;;4964015;29;20114;-73
2023/07/29 17:47:40;;;;;;;3.70;0.63;;;24.20;87.20;;;;;;4970829;28;20225;-73
2023/07/29 17:50:06;;;;;;;;;;;24.10;88.40;;;;;;4984467;28;20266;-72
2023/07/29 17:52:32;;;;;;;2.28;0.75;;;24.30;89.10;;;;;;4979985;28;19906;-72
2023/07/29 17:54:58;;;;;;;3.28;0.95;;;24.60;88.60;;;;;;4983048;28;20051;-71
2023/07/29 17:57:27;;;;;;;2.55;1.05;;;24.70;90.40;;;;;;4966429;28;20114;-77
2023/07/29 17:59:53;;;;;;;3.53;1.10;;;25.80;87.30;;;;;;4987465;28;20098;-74
2023/07/29 18:02:18;;;;;;;2.30;1.20;;;26.30;85.80;;;;;;4985558;28;20046;-75
2023/07/29 18:04:46;;;;;;;2.90;1.30;;;26.60;84.90;;;;;;4987412;28;20243;-75
2023/07/29 18:07:18;;;;;;;2.75;1.00;;;27.30;83.30;;;;;;4987030;28;20054;-75
2023/07/29 18:09:43;;;;;;;2.42;1.17;;;27.50;81.90;;;;;;4983621;28;20030;-74
2023/07/29 18:12:09;;;;;;;3.60;1.10;;;27.70;81.80;;;;;;4960329;28;20311;-74
2023/07/29 18:14:35;;;;;;;2.65;1.30;;;26.80;83.60;;;;;;4984272;28;20023;-73
2023/07/29 18:17:01;;;;;;;3.10;1.20;;;26.50;84.70;;;;;;4982019;28;20339;-76
2023/07/29 18:19:29;;;;;;;3.15;1.27;;;26.00;86.90;;;;;;4981024;28;20212;-74
2023/07/29 18:21:59;;;;;;;3.25;1.10;;;25.30;88.70;;;;;;4985829;28;20114;-72
2023/07/29 18:24:25;;;;;;;2.22;1.08;;;24.90;90.10;;;;;;4986983;28;20313;-72
2023/07/29 18:26:50;;;;;;;2.92;1.17;;;24.60;90.50;;;;;;4982615;28;20029;-74
2023/07/29 18:29:17;;;;;;;1.98;0.85;;;24.60;90.60;;;;;;4986881;28;20031;-73